This is the latest recevied weather packets stored in our database for station/object EA7HQL-10. If no packets are shown the sender has not sent any weather packets the latest 10 day(s).
| Time | Temp. | Humidity | Pressure | Rain* | Wind** | Luminosity | Snow |
|---|---|---|---|---|---|---|---|
| 1777393981 | 20° C | 70% | 1008.1 hPa | 0 mm | - | - | - |
| 1777393697 | 20° C | 70% | 1008.2 hPa | 0 mm | - | - | - |
| 1777393401 | 20° C | 70% | 1008.5 hPa | 0 mm | - | - | - |
| 1777393161 | 20° C | 71% | 1008.5 hPa | 0 mm | - | - | - |
| 1777392886 | 20° C | 71% | 1008.2 hPa | 0 mm | - | - | - |
| 1777392626 | 20° C | 72% | 1008.3 hPa | 0 mm | - | - | - |
| 1777392335 | 20° C | 70% | 1008.6 hPa | 0 mm | - | - | - |
| 1777392056 | 19.44° C | 73% | 1008.7 hPa | 0 mm | - | - | - |
| 1777391761 | 20° C | 72% | 1008.7 hPa | 0 mm | - | - | - |
| 1777391478 | 20° C | 73% | 1008.7 hPa | 0 mm | - | - | - |
| 1777391231 | 20° C | 73% | 1008.5 hPa | 0 mm | - | - | - |
| 1777390976 | 19.44° C | 75% | 1008.8 hPa | 0 mm | - | - | - |
| 1777390736 | 19.44° C | 75% | 1008.7 hPa | 0 mm | - | - | - |
| 1777390464 | 19.44° C | 74% | 1008.8 hPa | 0 mm | - | - | - |
| 1777390186 | 19.44° C | 76% | 1008.8 hPa | 0 mm | - | - | - |
| 1777389946 | 19.44° C | 75% | 1009 hPa | 0 mm | - | - | - |
| 1777389696 | 20° C | 74% | 1009 hPa | 0 mm | - | - | - |
| 1777389411 | 18.89° C | 75% | 1009.2 hPa | 0 mm | - | - | - |
| 1777389146 | 19.44° C | 75% | 1009.1 hPa | 0 mm | - | - | - |
| 1777388871 | 18.89° C | 76% | 1009.1 hPa | 0 mm | - | - | - |
| 1777388606 | 18.89° C | 76% | 1009.1 hPa | 0 mm | - | - | - |
| 1777388346 | 18.89° C | 75% | 1009.4 hPa | 0 mm | - | - | - |
| 1777388106 | 18.89° C | 76% | 1009.4 hPa | 0 mm | - | - | - |
| 1777387811 | 18.89° C | 77% | 1009.4 hPa | 0 mm | - | - | - |
| 1777387541 | 18.89° C | 78% | 1009.5 hPa | 0 mm | - | - | - |
* Rain latest hour (hover to see other rain measurements)
** Current wind speed in m/s (hover to see current wind gust speed)